sensor_id;sensor_type;location;lat;lon;timestamp;P1;durP1;ratioP1;P2;durP2;ratioP2
7879;SDS011;3985;49.366;2.738;2023-05-15T00:01:29;55.00;;;43.00;;
7879;SDS011;3985;49.366;2.738;2023-05-15T00:03:59;52.50;;;42.75;;
7879;SDS011;3985;49.366;2.738;2023-05-15T00:06:27;55.25;;;44.00;;
7879;SDS011;3985;49.366;2.738;2023-05-15T00:08:54;52.75;;;44.00;;
7879;SDS011;3985;49.366;2.738;2023-05-15T00:11:21;47.50;;;40.75;;
7879;SDS011;3985;49.366;2.738;2023-05-15T00:13:51;54.00;;;43.25;;
7879;SDS011;3985;49.366;2.738;2023-05-15T00:16:19;49.25;;;41.75;;
7879;SDS011;3985;49.366;2.738;2023-05-15T00:18:46;52.25;;;43.75;;
7879;SDS011;3985;49.366;2.738;2023-05-15T00:21:14;50.25;;;40.75;;
7879;SDS011;3985;49.366;2.738;2023-05-15T00:23:44;53.75;;;44.25;;
7879;SDS011;3985;49.366;2.738;2023-05-15T00:26:11;52.00;;;42.75;;
7879;SDS011;3985;49.366;2.738;2023-05-15T00:28:39;63.00;;;50.75;;
7879;SDS011;3985;49.366;2.738;2023-05-15T00:31:07;58.75;;;44.25;;
7879;SDS011;3985;49.366;2.738;2023-05-15T00:33:36;55.50;;;46.50;;
7879;SDS011;3985;49.366;2.738;2023-05-15T00:36:03;60.00;;;47.50;;
7879;SDS011;3985;49.366;2.738;2023-05-15T00:38:33;63.25;;;49.50;;
7879;SDS011;3985;49.366;2.738;2023-05-15T00:41:02;55.50;;;44.25;;
7879;SDS011;3985;49.366;2.738;2023-05-15T00:43:32;58.25;;;47.25;;
7879;SDS011;3985;49.366;2.738;2023-05-15T00:45:59;55.00;;;45.50;;
7879;SDS011;3985;49.366;2.738;2023-05-15T00:48:27;58.00;;;47.25;;
7879;SDS011;3985;49.366;2.738;2023-05-15T00:50:55;58.75;;;48.75;;
7879;SDS011;3985;49.366;2.738;2023-05-15T00:53:23;59.50;;;46.50;;
7879;SDS011;3985;49.366;2.738;2023-05-15T00:55:53;57.75;;;46.25;;
7879;SDS011;3985;49.366;2.738;2023-05-15T00:58:21;59.75;;;48.25;;
7879;SDS011;3985;49.366;2.738;2023-05-15T01:00:49;57.75;;;47.00;;
7879;SDS011;3985;49.366;2.738;2023-05-15T01:03:17;61.25;;;47.75;;
7879;SDS011;3985;49.366;2.738;2023-05-15T01:05:45;56.00;;;45.75;;
7879;SDS011;3985;49.366;2.738;2023-05-15T01:08:15;62.00;;;49.00;;
7879;SDS011;3985;49.366;2.738;2023-05-15T01:10:46;55.00;;;46.00;;
7879;SDS011;3985;49.366;2.738;2023-05-15T01:13:16;61.00;;;47.25;;
7879;SDS011;3985;49.366;2.738;2023-05-15T01:15:47;56.00;;;45.25;;
7879;SDS011;3985;49.366;2.738;2023-05-15T01:18:15;59.75;;;48.25;;
7879;SDS011;3985;49.366;2.738;2023-05-15T01:20:46;54.50;;;45.75;;
7879;SDS011;3985;49.366;2.738;2023-05-15T01:23:22;58.75;;;46.50;;
7879;SDS011;3985;49.366;2.738;2023-05-15T01:26:21;57.00;;;45.50;;
7879;SDS011;3985;49.366;2.738;2023-05-15T01:29:13;56.00;;;45.00;;
7879;SDS011;3985;49.366;2.738;2023-05-15T01:31:47;59.00;;;46.00;;
7879;SDS011;3985;49.366;2.738;2023-05-15T01:34:18;54.25;;;44.00;;
7879;SDS011;3985;49.366;2.738;2023-05-15T01:36:55;60.50;;;47.75;;
7879;SDS011;3985;49.366;2.738;2023-05-15T01:39:25;51.50;;;42.50;;
7879;SDS011;3985;49.366;2.738;2023-05-15T01:41:54;60.50;;;46.75;;
7879;SDS011;3985;49.366;2.738;2023-05-15T01:44:25;53.50;;;44.50;;
7879;SDS011;3985;49.366;2.738;2023-05-15T01:46:55;60.00;;;49.25;;
7879;SDS011;3985;49.366;2.738;2023-05-15T01:49:25;55.75;;;45.00;;
7879;SDS011;3985;49.366;2.738;2023-05-15T01:51:54;61.25;;;50.25;;
7879;SDS011;3985;49.366;2.738;2023-05-15T01:54:25;59.50;;;47.00;;
7879;SDS011;3985;49.366;2.738;2023-05-15T01:56:55;54.75;;;45.00;;
7879;SDS011;3985;49.366;2.738;2023-05-15T01:59:24;56.25;;;43.00;;
7879;SDS011;3985;49.366;2.738;2023-05-15T02:01:52;56.50;;;47.50;;
7879;SDS011;3985;49.366;2.738;2023-05-15T02:04:21;53.00;;;44.00;;
7879;SDS011;3985;49.366;2.738;2023-05-15T02:06:48;62.50;;;46.75;;
7879;SDS011;3985;49.366;2.738;2023-05-15T02:09:17;59.00;;;46.00;;
7879;SDS011;3985;49.366;2.738;2023-05-15T02:11:45;58.75;;;47.00;;
7879;SDS011;3985;49.366;2.738;2023-05-15T02:14:13;60.00;;;47.75;;
7879;SDS011;3985;49.366;2.738;2023-05-15T02:16:43;54.00;;;43.25;;
7879;SDS011;3985;49.366;2.738;2023-05-15T02:19:10;57.00;;;47.00;;
7879;SDS011;3985;49.366;2.738;2023-05-15T02:21:37;62.75;;;49.25;;
7879;SDS011;3985;49.366;2.738;2023-05-15T02:24:05;59.50;;;46.50;;
7879;SDS011;3985;49.366;2.738;2023-05-15T02:26:34;60.00;;;49.50;;
7879;SDS011;3985;49.366;2.738;2023-05-15T02:29:10;58.75;;;46.75;;
7879;SDS011;3985;49.366;2.738;2023-05-15T02:31:45;58.00;;;45.75;;
7879;SDS011;3985;49.366;2.738;2023-05-15T02:34:22;59.25;;;47.75;;
7879;SDS011;3985;49.366;2.738;2023-05-15T02:36:57;63.00;;;48.50;;
7879;SDS011;3985;49.366;2.738;2023-05-15T02:39:27;60.50;;;46.75;;
7879;SDS011;3985;49.366;2.738;2023-05-15T02:41:55;55.50;;;45.50;;
7879;SDS011;3985;49.366;2.738;2023-05-15T02:44:22;61.50;;;44.00;;
7879;SDS011;3985;49.366;2.738;2023-05-15T02:46:52;59.75;;;48.25;;
7879;SDS011;3985;49.366;2.738;2023-05-15T02:49:20;61.00;;;50.25;;
7879;SDS011;3985;49.366;2.738;2023-05-15T02:51:48;58.75;;;47.25;;
7879;SDS011;3985;49.366;2.738;2023-05-15T02:54:15;58.50;;;46.25;;
7879;SDS011;3985;49.366;2.738;2023-05-15T02:56:42;63.00;;;50.25;;
7879;SDS011;3985;49.366;2.738;2023-05-15T02:59:09;55.75;;;44.50;;
7879;SDS011;3985;49.366;2.738;2023-05-15T03:01:37;57.00;;;47.00;;
7879;SDS011;3985;49.366;2.738;2023-05-15T03:04:06;63.00;;;47.50;;
7879;SDS011;3985;49.366;2.738;2023-05-15T03:06:33;62.00;;;49.25;;
7879;SDS011;3985;49.366;2.738;2023-05-15T03:09:00;54.00;;;43.50;;
7879;SDS011;3985;49.366;2.738;2023-05-15T03:11:27;53.75;;;43.25;;
7879;SDS011;3985;49.366;2.738;2023-05-15T03:13:54;58.25;;;47.00;;
7879;SDS011;3985;49.366;2.738;2023-05-15T03:16:24;48.25;;;40.75;;
7879;SDS011;3985;49.366;2.738;2023-05-15T03:18:51;52.00;;;39.75;;
7879;SDS011;3985;49.366;2.738;2023-05-15T03:21:19;55.25;;;44.50;;
7879;SDS011;3985;49.366;2.738;2023-05-15T03:23:47;56.50;;;45.50;;
7879;SDS011;3985;49.366;2.738;2023-05-15T03:26:14;58.50;;;48.75;;
7879;SDS011;3985;49.366;2.738;2023-05-15T03:28:41;56.25;;;47.00;;
7879;SDS011;3985;49.366;2.738;2023-05-15T03:31:08;57.25;;;48.00;;
7879;SDS011;3985;49.366;2.738;2023-05-15T03:33:36;54.75;;;46.75;;
7879;SDS011;3985;49.366;2.738;2023-05-15T03:36:04;64.25;;;49.50;;
7879;SDS011;3985;49.366;2.738;2023-05-15T03:38:33;61.00;;;47.75;;
7879;SDS011;3985;49.366;2.738;2023-05-15T03:41:00;60.75;;;45.75;;
7879;SDS011;3985;49.366;2.738;2023-05-15T03:43:27;63.75;;;48.00;;
7879;SDS011;3985;49.366;2.738;2023-05-15T03:45:54;59.25;;;48.75;;
7879;SDS011;3985;49.366;2.738;2023-05-15T03:48:22;58.75;;;48.00;;
7879;SDS011;3985;49.366;2.738;2023-05-15T03:50:49;56.75;;;44.50;;
7879;SDS011;3985;49.366;2.738;2023-05-15T03:53:17;64.25;;;50.00;;
7879;SDS011;3985;49.366;2.738;2023-05-15T03:55:46;61.00;;;48.50;;
7879;SDS011;3985;49.366;2.738;2023-05-15T03:58:13;66.75;;;52.00;;
7879;SDS011;3985;49.366;2.738;2023-05-15T04:00:41;60.00;;;48.00;;
7879;SDS011;3985;49.366;2.738;2023-05-15T04:03:08;60.00;;;49.75;;
7879;SDS011;3985;49.366;2.738;2023-05-15T04:05:35;66.25;;;51.75;;
7879;SDS011;3985;49.366;2.738;2023-05-15T04:08:02;66.75;;;51.50;;
7879;SDS011;3985;49.366;2.738;2023-05-15T04:10:30;57.25;;;45.50;;
7879;SDS011;3985;49.366;2.738;2023-05-15T04:12:59;62.00;;;49.00;;
7879;SDS011;3985;49.366;2.738;2023-05-15T04:15:26;65.00;;;50.75;;
7879;SDS011;3985;49.366;2.738;2023-05-15T04:17:53;57.25;;;43.25;;
7879;SDS011;3985;49.366;2.738;2023-05-15T04:20:21;56.50;;;44.25;;
7879;SDS011;3985;49.366;2.738;2023-05-15T04:22:49;54.50;;;41.75;;
7879;SDS011;3985;49.366;2.738;2023-05-15T04:25:16;62.25;;;49.00;;
7879;SDS011;3985;49.366;2.738;2023-05-15T04:27:44;68.00;;;53.75;;
7879;SDS011;3985;49.366;2.738;2023-05-15T04:30:14;57.75;;;45.25;;
7879;SDS011;3985;49.366;2.738;2023-05-15T04:32:41;54.00;;;45.00;;
7879;SDS011;3985;49.366;2.738;2023-05-15T04:35:09;57.00;;;48.00;;
7879;SDS011;3985;49.366;2.738;2023-05-15T04:37:38;61.00;;;46.00;;
7879;SDS011;3985;49.366;2.738;2023-05-15T04:40:06;56.75;;;45.50;;
7879;SDS011;3985;49.366;2.738;2023-05-15T04:42:34;57.50;;;47.75;;
7879;SDS011;3985;49.366;2.738;2023-05-15T04:45:02;60.25;;;50.00;;
7879;SDS011;3985;49.366;2.738;2023-05-15T04:47:31;56.25;;;45.75;;
7879;SDS011;3985;49.366;2.738;2023-05-15T04:49:59;60.75;;;48.25;;
7879;SDS011;3985;49.366;2.738;2023-05-15T04:52:26;55.50;;;46.50;;
7879;SDS011;3985;49.366;2.738;2023-05-15T04:54:54;58.75;;;48.00;;
7879;SDS011;3985;49.366;2.738;2023-05-15T04:57:21;61.25;;;48.25;;
7879;SDS011;3985;49.366;2.738;2023-05-15T04:59:49;56.75;;;44.00;;
7879;SDS011;3985;49.366;2.738;2023-05-15T05:02:18;56.00;;;44.00;;
7879;SDS011;3985;49.366;2.738;2023-05-15T05:04:52;57.00;;;46.75;;
7879;SDS011;3985;49.366;2.738;2023-05-15T05:07:19;57.00;;;45.75;;
7879;SDS011;3985;49.366;2.738;2023-05-15T05:09:46;49.50;;;40.00;;
7879;SDS011;3985;49.366;2.738;2023-05-15T05:12:13;46.50;;;39.50;;
7879;SDS011;3985;49.366;2.738;2023-05-15T05:14:42;57.00;;;45.25;;
7879;SDS011;3985;49.366;2.738;2023-05-15T05:17:11;61.75;;;43.50;;
7879;SDS011;3985;49.366;2.738;2023-05-15T05:19:38;54.25;;;41.00;;
7879;SDS011;3985;49.366;2.738;2023-05-15T05:22:08;47.50;;;39.75;;
7879;SDS011;3985;49.366;2.738;2023-05-15T05:24:35;49.50;;;41.00;;
7879;SDS011;3985;49.366;2.738;2023-05-15T05:27:03;48.50;;;39.00;;
7879;SDS011;3985;49.366;2.738;2023-05-15T05:29:31;56.25;;;45.50;;
7879;SDS011;3985;49.366;2.738;2023-05-15T05:31:58;58.00;;;46.00;;
7879;SDS011;3985;49.366;2.738;2023-05-15T05:34:25;39.25;;;35.00;;
7879;SDS011;3985;49.366;2.738;2023-05-15T05:36:53;43.00;;;38.00;;
7879;SDS011;3985;49.366;2.738;2023-05-15T05:39:22;57.50;;;44.50;;
7879;SDS011;3985;49.366;2.738;2023-05-15T05:41:49;56.00;;;45.50;;
7879;SDS011;3985;49.366;2.738;2023-05-15T05:44:16;55.75;;;45.50;;
7879;SDS011;3985;49.366;2.738;2023-05-15T05:46:43;54.50;;;41.00;;
7879;SDS011;3985;49.366;2.738;2023-05-15T05:49:11;53.50;;;40.75;;
7879;SDS011;3985;49.366;2.738;2023-05-15T05:51:38;50.75;;;42.25;;
7879;SDS011;3985;49.366;2.738;2023-05-15T05:54:05;54.50;;;45.25;;
7879;SDS011;3985;49.366;2.738;2023-05-15T05:56:34;55.50;;;45.00;;
7879;SDS011;3985;49.366;2.738;2023-05-15T05:59:01;54.00;;;42.50;;
7879;SDS011;3985;49.366;2.738;2023-05-15T06:01:30;51.75;;;43.25;;
7879;SDS011;3985;49.366;2.738;2023-05-15T06:04:00;60.00;;;45.50;;
7879;SDS011;3985;49.366;2.738;2023-05-15T06:06:29;52.75;;;42.50;;
7879;SDS011;3985;49.366;2.738;2023-05-15T06:08:56;53.75;;;43.25;;
7879;SDS011;3985;49.366;2.738;2023-05-15T06:11:24;53.00;;;43.75;;
7879;SDS011;3985;49.366;2.738;2023-05-15T06:13:52;52.00;;;40.00;;
7879;SDS011;3985;49.366;2.738;2023-05-15T06:16:22;51.50;;;41.25;;
7879;SDS011;3985;49.366;2.738;2023-05-15T06:18:49;49.50;;;40.00;;
7879;SDS011;3985;49.366;2.738;2023-05-15T06:21:17;54.50;;;44.75;;
7879;SDS011;3985;49.366;2.738;2023-05-15T06:23:44;45.75;;;38.25;;
7879;SDS011;3985;49.366;2.738;2023-05-15T06:26:11;53.75;;;40.75;;
7879;SDS011;3985;49.366;2.738;2023-05-15T06:28:39;46.50;;;38.25;;
7879;SDS011;3985;49.366;2.738;2023-05-15T06:31:07;50.00;;;41.00;;
7879;SDS011;3985;49.366;2.738;2023-05-15T06:33:35;50.50;;;39.00;;
7879;SDS011;3985;49.366;2.738;2023-05-15T06:36:02;51.50;;;43.00;;
7879;SDS011;3985;49.366;2.738;2023-05-15T06:38:29;53.50;;;42.50;;
7879;SDS011;3985;49.366;2.738;2023-05-15T06:40:57;50.75;;;42.00;;
7879;SDS011;3985;49.366;2.738;2023-05-15T06:43:24;51.25;;;40.75;;
7879;SDS011;3985;49.366;2.738;2023-05-15T06:45:51;48.75;;;40.25;;
7879;SDS011;3985;49.366;2.738;2023-05-15T06:48:20;42.25;;;35.50;;
7879;SDS011;3985;49.366;2.738;2023-05-15T06:50:47;45.50;;;37.50;;
7879;SDS011;3985;49.366;2.738;2023-05-15T06:53:14;44.75;;;35.75;;
7879;SDS011;3985;49.366;2.738;2023-05-15T06:55:42;43.00;;;37.00;;
7879;SDS011;3985;49.366;2.738;2023-05-15T06:58:09;32.25;;;31.50;;
7879;SDS011;3985;49.366;2.738;2023-05-15T07:00:37;47.25;;;39.25;;
7879;SDS011;3985;49.366;2.738;2023-05-15T07:03:04;45.75;;;36.00;;
7879;SDS011;3985;49.366;2.738;2023-05-15T07:05:32;45.75;;;37.50;;
7879;SDS011;3985;49.366;2.738;2023-05-15T07:08:00;40.50;;;36.00;;
7879;SDS011;3985;49.366;2.738;2023-05-15T07:10:27;48.00;;;38.00;;
7879;SDS011;3985;49.366;2.738;2023-05-15T07:12:54;41.50;;;35.50;;
7879;SDS011;3985;49.366;2.738;2023-05-15T07:15:21;51.00;;;37.25;;
7879;SDS011;3985;49.366;2.738;2023-05-15T07:17:48;41.25;;;34.00;;
7879;SDS011;3985;49.366;2.738;2023-05-15T07:20:16;25.00;;;23.00;;
7879;SDS011;3985;49.366;2.738;2023-05-15T07:22:44;44.25;;;37.50;;
7879;SDS011;3985;49.366;2.738;2023-05-15T07:25:11;45.75;;;38.00;;
7879;SDS011;3985;49.366;2.738;2023-05-15T07:27:38;43.25;;;35.25;;
7879;SDS011;3985;49.366;2.738;2023-05-15T07:30:06;34.50;;;32.75;;
7879;SDS011;3985;49.366;2.738;2023-05-15T07:32:34;39.00;;;34.00;;
7879;SDS011;3985;49.366;2.738;2023-05-15T07:35:01;34.00;;;32.50;;
7879;SDS011;3985;49.366;2.738;2023-05-15T07:37:29;33.50;;;31.25;;
7879;SDS011;3985;49.366;2.738;2023-05-15T07:39:58;37.75;;;32.75;;
7879;SDS011;3985;49.366;2.738;2023-05-15T07:42:25;39.50;;;33.75;;
7879;SDS011;3985;49.366;2.738;2023-05-15T07:44:52;34.00;;;33.00;;
7879;SDS011;3985;49.366;2.738;2023-05-15T07:47:19;44.50;;;35.50;;
7879;SDS011;3985;49.366;2.738;2023-05-15T07:49:47;36.50;;;33.50;;
7879;SDS011;3985;49.366;2.738;2023-05-15T07:52:14;43.75;;;35.25;;
7879;SDS011;3985;49.366;2.738;2023-05-15T07:54:41;49.75;;;38.25;;
7879;SDS011;3985;49.366;2.738;2023-05-15T07:57:09;36.50;;;34.25;;
7879;SDS011;3985;49.366;2.738;2023-05-15T07:59:38;47.00;;;37.50;;
7879;SDS011;3985;49.366;2.738;2023-05-15T08:02:05;38.75;;;35.00;;
7879;SDS011;3985;49.366;2.738;2023-05-15T08:04:32;42.50;;;37.75;;
7879;SDS011;3985;49.366;2.738;2023-05-15T08:07:00;39.75;;;32.00;;
7879;SDS011;3985;49.366;2.738;2023-05-15T08:09:27;43.25;;;37.25;;
7879;SDS011;3985;49.366;2.738;2023-05-15T08:11:54;40.25;;;35.00;;
7879;SDS011;3985;49.366;2.738;2023-05-15T08:14:23;40.25;;;36.50;;
7879;SDS011;3985;49.366;2.738;2023-05-15T08:16:50;48.25;;;39.50;;
7879;SDS011;3985;49.366;2.738;2023-05-15T08:19:17;40.25;;;35.00;;
7879;SDS011;3985;49.366;2.738;2023-05-15T08:21:47;36.50;;;31.75;;
7879;SDS011;3985;49.366;2.738;2023-05-15T08:24:14;35.00;;;31.50;;
7879;SDS011;3985;49.366;2.738;2023-05-15T08:26:41;39.00;;;34.25;;
7879;SDS011;3985;49.366;2.738;2023-05-15T08:29:08;38.25;;;31.75;;
7879;SDS011;3985;49.366;2.738;2023-05-15T08:31:40;38.75;;;34.25;;
7879;SDS011;3985;49.366;2.738;2023-05-15T08:34:07;37.50;;;34.50;;
7879;SDS011;3985;49.366;2.738;2023-05-15T08:36:34;39.00;;;34.75;;
7879;SDS011;3985;49.366;2.738;2023-05-15T08:39:02;43.25;;;34.00;;
7879;SDS011;3985;49.366;2.738;2023-05-15T08:41:31;39.75;;;33.00;;
7879;SDS011;3985;49.366;2.738;2023-05-15T08:43:59;42.50;;;36.75;;
7879;SDS011;3985;49.366;2.738;2023-05-15T08:46:27;37.75;;;33.00;;
7879;SDS011;3985;49.366;2.738;2023-05-15T08:48:56;31.25;;;29.00;;
7879;SDS011;3985;49.366;2.738;2023-05-15T08:51:24;49.25;;;37.50;;
7879;SDS011;3985;49.366;2.738;2023-05-15T08:53:51;46.50;;;37.25;;
7879;SDS011;3985;49.366;2.738;2023-05-15T08:56:19;41.25;;;36.75;;
7879;SDS011;3985;49.366;2.738;2023-05-15T08:58:46;40.50;;;36.50;;
7879;SDS011;3985;49.366;2.738;2023-05-15T09:01:13;40.00;;;35.00;;
7879;SDS011;3985;49.366;2.738;2023-05-15T09:03:41;48.50;;;40.00;;
7879;SDS011;3985;49.366;2.738;2023-05-15T09:06:10;39.50;;;35.00;;
7879;SDS011;3985;49.366;2.738;2023-05-15T09:08:38;48.25;;;38.25;;
7879;SDS011;3985;49.366;2.738;2023-05-15T09:11:06;45.75;;;38.00;;
7879;SDS011;3985;49.366;2.738;2023-05-15T09:13:34;47.25;;;38.75;;
7879;SDS011;3985;49.366;2.738;2023-05-15T09:16:01;13.50;;;7.75;;
7879;SDS011;3985;49.366;2.738;2023-05-15T09:18:29;29.00;;;27.25;;
7879;SDS011;3985;49.366;2.738;2023-05-15T09:21:02;24.75;;;24.75;;
7879;SDS011;3985;49.366;2.738;2023-05-15T09:23:49;23.50;;;22.00;;
7879;SDS011;3985;49.366;2.738;2023-05-15T09:26:16;22.75;;;21.25;;
7879;SDS011;3985;49.366;2.738;2023-05-15T09:28:44;29.00;;;23.75;;
7879;SDS011;3985;49.366;2.738;2023-05-15T09:31:12;19.00;;;19.00;;
7879;SDS011;3985;49.366;2.738;2023-05-15T09:33:39;21.67;;;20.00;;
7879;SDS011;3985;49.366;2.738;2023-05-15T09:36:07;24.33;;;21.67;;
7879;SDS011;3985;49.366;2.738;2023-05-15T09:38:40;24.67;;;23.00;;
7879;SDS011;3985;49.366;2.738;2023-05-15T09:41:12;24.33;;;24.33;;
7879;SDS011;3985;49.366;2.738;2023-05-15T09:43:39;20.00;;;20.00;;
7879;SDS011;3985;49.366;2.738;2023-05-15T09:46:07;22.33;;;22.33;;
7879;SDS011;3985;49.366;2.738;2023-05-15T09:48:36;24.67;;;24.67;;
7879;SDS011;3985;49.366;2.738;2023-05-15T09:51:04;20.00;;;18.67;;
7879;SDS011;3985;49.366;2.738;2023-05-15T09:53:33;22.67;;;20.00;;
7879;SDS011;3985;49.366;2.738;2023-05-15T09:56:04;21.00;;;20.33;;
7879;SDS011;3985;49.366;2.738;2023-05-15T09:58:31;16.25;;;14.50;;
7879;SDS011;3985;49.366;2.738;2023-05-15T10:01:00;22.50;;;19.50;;
7879;SDS011;3985;49.366;2.738;2023-05-15T10:03:28;15.50;;;15.50;;
7879;SDS011;3985;49.366;2.738;2023-05-15T10:05:57;21.50;;;21.50;;
7879;SDS011;3985;49.366;2.738;2023-05-15T10:08:25;21.25;;;20.50;;
7879;SDS011;3985;49.366;2.738;2023-05-15T10:10:53;26.00;;;23.00;;
7879;SDS011;3985;49.366;2.738;2023-05-15T10:13:24;19.25;;;19.00;;
7879;SDS011;3985;49.366;2.738;2023-05-15T10:15:52;21.00;;;21.00;;
7879;SDS011;3985;49.366;2.738;2023-05-15T10:18:21;21.50;;;19.25;;
7879;SDS011;3985;49.366;2.738;2023-05-15T10:20:50;16.50;;;13.00;;
7879;SDS011;3985;49.366;2.738;2023-05-15T10:23:18;21.75;;;19.75;;
7879;SDS011;3985;49.366;2.738;2023-05-15T10:25:49;20.00;;;20.00;;
7879;SDS011;3985;49.366;2.738;2023-05-15T10:28:21;24.50;;;20.25;;
7879;SDS011;3985;49.366;2.738;2023-05-15T10:30:49;19.50;;;19.25;;
7879;SDS011;3985;49.366;2.738;2023-05-15T10:33:18;21.00;;;21.00;;
7879;SDS011;3985;49.366;2.738;2023-05-15T10:35:45;24.25;;;23.00;;
7879;SDS011;3985;49.366;2.738;2023-05-15T10:38:12;21.75;;;20.75;;
7879;SDS011;3985;49.366;2.738;2023-05-15T10:40:40;27.75;;;25.75;;
7879;SDS011;3985;49.366;2.738;2023-05-15T10:43:08;23.50;;;22.50;;
7879;SDS011;3985;49.366;2.738;2023-05-15T10:45:38;26.75;;;23.50;;
7879;SDS011;3985;49.366;2.738;2023-05-15T10:48:05;30.00;;;26.75;;
7879;SDS011;3985;49.366;2.738;2023-05-15T10:50:36;15.00;;;15.00;;
7879;SDS011;3985;49.366;2.738;2023-05-15T10:53:04;22.75;;;21.00;;
7879;SDS011;3985;49.366;2.738;2023-05-15T10:55:31;21.00;;;21.00;;
7879;SDS011;3985;49.366;2.738;2023-05-15T10:57:58;24.50;;;18.75;;
7879;SDS011;3985;49.366;2.738;2023-05-15T11:00:26;22.50;;;21.50;;
7879;SDS011;3985;49.366;2.738;2023-05-15T11:02:56;21.50;;;21.50;;
7879;SDS011;3985;49.366;2.738;2023-05-15T11:05:25;27.25;;;24.25;;
7879;SDS011;3985;49.366;2.738;2023-05-15T11:10:51;21.00;;;19.25;;
7879;SDS011;3985;49.366;2.738;2023-05-15T11:13:19;21.25;;;21.25;;
7879;SDS011;3985;49.366;2.738;2023-05-15T11:15:46;21.25;;;20.25;;
7879;SDS011;3985;49.366;2.738;2023-05-15T11:18:15;23.25;;;22.50;;
7879;SDS011;3985;49.366;2.738;2023-05-15T11:23:36;21.00;;;21.00;;
7879;SDS011;3985;49.366;2.738;2023-05-15T11:26:04;22.00;;;19.75;;
7879;SDS011;3985;49.366;2.738;2023-05-15T11:28:39;25.00;;;25.00;;
7879;SDS011;3985;49.366;2.738;2023-05-15T11:31:08;29.50;;;24.00;;
7879;SDS011;3985;49.366;2.738;2023-05-15T11:33:38;23.75;;;23.75;;
7879;SDS011;3985;49.366;2.738;2023-05-15T11:36:05;26.00;;;26.00;;
7879;SDS011;3985;49.366;2.738;2023-05-15T11:38:36;27.75;;;25.75;;
7879;SDS011;3985;49.366;2.738;2023-05-15T11:41:16;22.50;;;21.50;;
7879;SDS011;3985;49.366;2.738;2023-05-15T11:43:46;26.00;;;23.50;;
7879;SDS011;3985;49.366;2.738;2023-05-15T11:46:13;26.75;;;26.75;;
7879;SDS011;3985;49.366;2.738;2023-05-15T11:48:43;27.25;;;27.25;;
7879;SDS011;3985;49.366;2.738;2023-05-15T11:51:15;25.75;;;25.25;;
7879;SDS011;3985;49.366;2.738;2023-05-15T11:53:44;25.25;;;24.75;;
7879;SDS011;3985;49.366;2.738;2023-05-15T11:56:12;28.75;;;28.75;;
7879;SDS011;3985;49.366;2.738;2023-05-15T11:58:43;30.00;;;28.00;;
7879;SDS011;3985;49.366;2.738;2023-05-15T12:01:13;32.50;;;28.00;;
7879;SDS011;3985;49.366;2.738;2023-05-15T12:03:40;30.75;;;26.50;;
7879;SDS011;3985;49.366;2.738;2023-05-15T12:06:09;28.25;;;27.75;;
7879;SDS011;3985;49.366;2.738;2023-05-15T12:08:37;25.50;;;23.75;;
7879;SDS011;3985;49.366;2.738;2023-05-15T12:11:06;30.50;;;26.00;;
7879;SDS011;3985;49.366;2.738;2023-05-15T12:13:33;27.75;;;27.50;;
7879;SDS011;3985;49.366;2.738;2023-05-15T12:16:01;27.75;;;26.50;;
7879;SDS011;3985;49.366;2.738;2023-05-15T12:18:29;27.50;;;27.50;;
7879;SDS011;3985;49.366;2.738;2023-05-15T12:20:58;30.00;;;23.75;;
7879;SDS011;3985;49.366;2.738;2023-05-15T12:23:25;32.00;;;26.50;;
7879;SDS011;3985;49.366;2.738;2023-05-15T12:25:57;31.50;;;26.50;;
7879;SDS011;3985;49.366;2.738;2023-05-15T12:28:26;30.25;;;28.25;;
7879;SDS011;3985;49.366;2.738;2023-05-15T12:30:54;31.00;;;26.50;;
7879;SDS011;3985;49.366;2.738;2023-05-15T12:33:22;21.75;;;20.25;;
7879;SDS011;3985;49.366;2.738;2023-05-15T12:35:50;32.00;;;31.25;;
7879;SDS011;3985;49.366;2.738;2023-05-15T12:38:22;26.75;;;26.75;;
7879;SDS011;3985;49.366;2.738;2023-05-15T12:40:52;23.75;;;23.75;;
7879;SDS011;3985;49.366;2.738;2023-05-15T12:43:22;17.50;;;14.25;;
7879;SDS011;3985;49.366;2.738;2023-05-15T12:45:53;19.25;;;18.50;;
7879;SDS011;3985;49.366;2.738;2023-05-15T12:48:21;25.25;;;23.50;;
7879;SDS011;3985;49.366;2.738;2023-05-15T12:50:48;18.75;;;17.25;;
7879;SDS011;3985;49.366;2.738;2023-05-15T12:53:16;14.75;;;14.50;;
7879;SDS011;3985;49.366;2.738;2023-05-15T12:55:45;23.00;;;21.00;;
7879;SDS011;3985;49.366;2.738;2023-05-15T12:58:13;23.00;;;23.00;;
7879;SDS011;3985;49.366;2.738;2023-05-15T13:00:42;28.25;;;23.50;;
7879;SDS011;3985;49.366;2.738;2023-05-15T13:03:11;21.25;;;20.25;;
7879;SDS011;3985;49.366;2.738;2023-05-15T13:05:40;19.75;;;19.25;;
7879;SDS011;3985;49.366;2.738;2023-05-15T13:08:09;19.75;;;19.50;;
7879;SDS011;3985;49.366;2.738;2023-05-15T13:10:41;15.50;;;15.25;;
7879;SDS011;3985;49.366;2.738;2023-05-15T13:13:10;17.00;;;15.50;;
7879;SDS011;3985;49.366;2.738;2023-05-15T13:15:37;15.00;;;13.00;;
7879;SDS011;3985;49.366;2.738;2023-05-15T13:18:06;14.25;;;14.25;;
7879;SDS011;3985;49.366;2.738;2023-05-15T13:20:35;16.75;;;15.00;;
7879;SDS011;3985;49.366;2.738;2023-05-15T13:23:04;17.25;;;16.25;;
7879;SDS011;3985;49.366;2.738;2023-05-15T13:25:31;10.00;;;10.00;;
7879;SDS011;3985;49.366;2.738;2023-05-15T13:28:00;10.75;;;8.75;;
7879;SDS011;3985;49.366;2.738;2023-05-15T13:30:32;10.00;;;10.00;;
7879;SDS011;3985;49.366;2.738;2023-05-15T13:33:00;9.50;;;9.25;;
7879;SDS011;3985;49.366;2.738;2023-05-15T13:35:27;13.00;;;13.00;;
7879;SDS011;3985;49.366;2.738;2023-05-15T13:37:55;12.25;;;12.25;;
7879;SDS011;3985;49.366;2.738;2023-05-15T13:40:22;13.25;;;13.25;;
7879;SDS011;3985;49.366;2.738;2023-05-15T13:42:49;16.50;;;16.50;;
7879;SDS011;3985;49.366;2.738;2023-05-15T13:45:17;15.75;;;14.25;;
7879;SDS011;3985;49.366;2.738;2023-05-15T13:47:45;12.75;;;11.00;;
7879;SDS011;3985;49.366;2.738;2023-05-15T13:50:13;17.25;;;14.50;;
7879;SDS011;3985;49.366;2.738;2023-05-15T13:52:41;14.75;;;14.25;;
7879;SDS011;3985;49.366;2.738;2023-05-15T13:55:10;16.50;;;16.50;;
7879;SDS011;3985;49.366;2.738;2023-05-15T13:57:37;14.25;;;13.25;;
7879;SDS011;3985;49.366;2.738;2023-05-15T14:00:06;11.50;;;11.00;;
7879;SDS011;3985;49.366;2.738;2023-05-15T14:02:36;13.75;;;13.50;;
7879;SDS011;3985;49.366;2.738;2023-05-15T14:05:05;14.25;;;14.00;;
7879;SDS011;3985;49.366;2.738;2023-05-15T14:07:34;18.25;;;17.25;;
7879;SDS011;3985;49.366;2.738;2023-05-15T14:10:01;12.00;;;12.00;;
7879;SDS011;3985;49.366;2.738;2023-05-15T14:12:28;10.75;;;10.50;;
7879;SDS011;3985;49.366;2.738;2023-05-15T14:14:56;14.50;;;13.00;;
7879;SDS011;3985;49.366;2.738;2023-05-15T14:17:23;16.00;;;11.25;;
7879;SDS011;3985;49.366;2.738;2023-05-15T14:19:51;14.00;;;11.00;;
7879;SDS011;3985;49.366;2.738;2023-05-15T14:22:20;8.25;;;8.25;;
7879;SDS011;3985;49.366;2.738;2023-05-15T14:24:48;8.50;;;8.50;;
7879;SDS011;3985;49.366;2.738;2023-05-15T14:27:16;9.25;;;6.25;;
7879;SDS011;3985;49.366;2.738;2023-05-15T14:29:43;8.25;;;8.25;;
7879;SDS011;3985;49.366;2.738;2023-05-15T14:32:13;5.50;;;5.50;;
7879;SDS011;3985;49.366;2.738;2023-05-15T14:34:41;6.75;;;6.25;;
7879;SDS011;3985;49.366;2.738;2023-05-15T14:37:08;9.75;;;6.50;;
7879;SDS011;3985;49.366;2.738;2023-05-15T14:39:37;4.25;;;4.25;;
7879;SDS011;3985;49.366;2.738;2023-05-15T14:42:04;7.00;;;7.00;;
7879;SDS011;3985;49.366;2.738;2023-05-15T14:44:32;8.25;;;6.25;;
7879;SDS011;3985;49.366;2.738;2023-05-15T14:47:06;4.25;;;4.25;;
7879;SDS011;3985;49.366;2.738;2023-05-15T14:49:34;7.50;;;6.00;;
7879;SDS011;3985;49.366;2.738;2023-05-15T14:52:01;7.25;;;7.25;;
7879;SDS011;3985;49.366;2.738;2023-05-15T14:54:30;5.75;;;5.75;;
7879;SDS011;3985;49.366;2.738;2023-05-15T14:56:58;3.25;;;3.25;;
7879;SDS011;3985;49.366;2.738;2023-05-15T14:59:26;5.25;;;5.25;;
7879;SDS011;3985;49.366;2.738;2023-05-15T15:01:53;4.00;;;4.00;;